createdAt,value
2022-09-24T00:03:47.102Z,25.60
2022-09-24T00:08:55.922Z,25.90
2022-09-24T00:14:02.249Z,26.00
2022-09-24T00:19:08.093Z,26.30
2022-09-24T00:24:38.090Z,26.60
2022-09-24T00:29:43.771Z,26.70
2022-09-24T00:34:49.521Z,26.60
2022-09-24T00:39:55.107Z,26.70
2022-09-24T00:45:00.516Z,26.80
2022-09-24T00:50:15.718Z,26.90
2022-09-24T00:55:25.300Z,26.80
2022-09-24T01:00:32.061Z,27.00
2022-09-24T01:05:40.016Z,27.00
2022-09-24T01:10:56.573Z,26.90
2022-09-24T01:16:15.489Z,26.70
2022-09-24T01:21:41.120Z,26.60
2022-09-24T01:27:10.891Z,26.80
2022-09-24T01:32:21.890Z,27.80
2022-09-24T01:37:30.799Z,28.40
2022-09-24T01:42:38.619Z,28.10
2022-09-24T01:47:47.616Z,27.70
2022-09-24T01:53:25.473Z,27.40
2022-09-24T01:58:50.477Z,27.50
2022-09-24T02:04:03.051Z,27.80
2022-09-24T02:09:08.780Z,27.70
2022-09-24T02:14:17.827Z,27.80
2022-09-24T02:19:29.153Z,28.20
2022-09-24T02:24:40.992Z,28.20
2022-09-24T02:29:47.074Z,28.20
2022-09-24T02:35:02.948Z,28.30
2022-09-24T02:40:14.081Z,29.20
2022-09-24T02:45:26.053Z,29.40
2022-09-24T02:50:36.027Z,29.30
2022-09-24T02:55:42.583Z,28.80
2022-09-24T03:00:48.582Z,28.40
2022-09-24T03:05:57.326Z,27.90
2022-09-24T03:11:03.465Z,27.90
2022-09-24T03:16:10.296Z,28.10
2022-09-24T03:21:18.022Z,28.30
2022-09-24T03:26:24.223Z,28.50
2022-09-24T03:31:29.079Z,28.50
2022-09-24T03:36:34.869Z,28.50
2022-09-24T03:41:39.894Z,28.50
2022-09-24T03:46:45.623Z,28.40
2022-09-24T03:51:52.130Z,28.60
2022-09-24T03:56:57.472Z,28.80
2022-09-24T04:02:02.832Z,29.30
2022-09-24T04:07:09.086Z,29.30
2022-09-24T04:12:14.943Z,29.10
2022-09-24T04:17:19.814Z,29.00
2022-09-24T04:22:26.352Z,29.00
2022-09-24T04:27:32.704Z,28.60
2022-09-24T04:32:38.395Z,28.00
2022-09-24T04:37:44.965Z,27.70
2022-09-24T04:42:50.544Z,27.70
2022-09-24T04:47:59.946Z,27.40
2022-09-24T04:53:10.182Z,27.30
2022-09-24T04:58:17.264Z,27.40
2022-09-24T05:03:23.334Z,27.40
2022-09-24T05:08:28.978Z,27.50
2022-09-24T05:13:34.607Z,27.50
2022-09-24T05:18:40.376Z,27.50
2022-09-24T05:23:46.354Z,27.70
2022-09-24T05:28:53.935Z,27.90
2022-09-24T05:33:59.471Z,27.90
2022-09-24T05:39:05.665Z,27.90
2022-09-24T05:44:13.037Z,27.90
2022-09-24T05:49:19.373Z,27.90
2022-09-24T05:54:25.248Z,27.80
2022-09-24T05:59:30.809Z,27.80
2022-09-24T06:04:36.299Z,28.00
2022-09-24T06:09:41.926Z,28.10
2022-09-24T06:14:47.377Z,28.30
2022-09-24T06:19:53.864Z,29.40
2022-09-24T06:24:59.721Z,29.70
2022-09-24T06:30:06.457Z,29.20
2022-09-24T06:35:12.294Z,28.90
2022-09-24T06:40:18.641Z,29.60
2022-09-24T06:45:25.408Z,30.40
2022-09-24T06:50:32.635Z,32.40
2022-09-24T06:55:39.612Z,33.70
2022-09-24T07:00:45.411Z,33.30
2022-09-24T07:05:51.404Z,34.50
2022-09-24T07:10:57.049Z,35.10
2022-09-24T07:16:03.257Z,35.20
2022-09-24T07:21:09.283Z,34.90
2022-09-24T07:26:15.575Z,33.70
2022-09-24T07:31:21.040Z,32.80
2022-09-24T07:36:26.661Z,31.40
2022-09-24T07:41:34.655Z,30.10
2022-09-24T07:46:42.040Z,29.40
2022-09-24T07:51:47.513Z,29.10
2022-09-24T07:56:53.346Z,29.60
2022-09-24T08:02:04.622Z,29.90
2022-09-24T08:07:10.779Z,30.00
2022-09-24T08:12:26.166Z,30.00
2022-09-24T08:17:34.416Z,29.70
2022-09-24T08:22:40.466Z,28.90
2022-09-24T08:27:46.426Z,28.60
2022-09-24T08:32:52.087Z,28.80
2022-09-24T08:37:57.624Z,29.00
2022-09-24T08:43:07.816Z,29.00
2022-09-24T08:48:24.138Z,28.70
2022-09-24T08:53:55.603Z,28.50
2022-09-24T08:59:05.087Z,28.00
2022-09-24T09:04:44.617Z,27.60
2022-09-24T09:10:30.789Z,27.60
2022-09-24T09:15:41.881Z,27.40
2022-09-24T09:20:50.321Z,27.20
2022-09-24T09:26:01.430Z,27.10
2022-09-24T09:31:25.552Z,26.90
2022-09-24T09:36:40.751Z,26.40
2022-09-24T09:41:59.817Z,26.50
2022-09-24T09:47:38.893Z,26.50
2022-09-24T09:52:45.357Z,26.60
2022-09-24T09:57:52.595Z,26.80
2022-09-24T10:02:59.191Z,26.80
2022-09-24T10:08:05.222Z,26.80
2022-09-24T10:13:14.490Z,26.80
2022-09-24T10:18:26.422Z,26.70
2022-09-24T10:23:52.054Z,26.70
2022-09-24T10:29:15.798Z,26.70
2022-09-24T10:34:31.242Z,26.60
2022-09-24T10:39:36.761Z,26.60
2022-09-24T10:44:41.799Z,26.60
2022-09-24T10:49:50.878Z,26.50
2022-09-24T10:55:28.572Z,26.60
2022-09-24T11:00:50.822Z,26.50
2022-09-24T11:06:15.141Z,26.60
2022-09-24T11:11:49.835Z,26.60
2022-09-24T11:17:07.679Z,26.60
2022-09-24T11:22:38.492Z,26.60
2022-09-24T11:28:22.666Z,26.70
2022-09-24T11:33:36.548Z,26.70
2022-09-24T11:38:51.519Z,26.70
2022-09-24T11:44:34.367Z,26.80
2022-09-24T11:49:56.882Z,26.70
2022-09-24T11:55:22.142Z,26.70
2022-09-24T12:00:34.771Z,26.70
2022-09-24T12:05:48.073Z,26.70
2022-09-24T12:11:20.886Z,26.60
2022-09-24T12:16:33.194Z,26.60
2022-09-24T12:21:47.606Z,26.60
2022-09-24T12:26:57.903Z,26.50
2022-09-24T12:32:43.159Z,26.50
2022-09-24T12:37:52.164Z,26.50
2022-09-24T12:43:02.137Z,26.50
2022-09-24T12:48:08.593Z,26.60
2022-09-24T12:53:26.593Z,26.60
2022-09-24T12:58:49.423Z,26.60
2022-09-24T13:04:16.346Z,26.70
2022-09-24T13:09:41.604Z,26.60
2022-09-24T13:15:05.983Z,26.70
2022-09-24T13:20:27.662Z,26.70
2022-09-24T13:25:33.601Z,26.70
2022-09-24T13:30:45.221Z,26.70
2022-09-24T13:36:26.527Z,26.70
2022-09-24T13:41:55.189Z,26.70
2022-09-24T13:48:06.450Z,26.70
2022-09-24T13:53:36.762Z,26.70
2022-09-24T13:58:45.557Z,26.60
2022-09-24T14:04:03.888Z,26.50
2022-09-24T14:09:41.062Z,26.50
2022-09-24T14:14:53.310Z,26.50
2022-09-24T14:20:00.015Z,26.40
2022-09-24T14:25:11.203Z,26.40
2022-09-24T14:30:33.205Z,26.40
2022-09-24T14:35:47.211Z,26.20
2022-09-24T14:40:59.237Z,26.20
2022-09-24T14:46:11.153Z,26.30
2022-09-24T14:52:04.939Z,26.20
2022-09-24T14:57:21.467Z,26.10
2022-09-24T15:02:42.454Z,26.00
2022-09-24T15:07:49.719Z,26.00
2022-09-24T15:12:56.679Z,26.00
2022-09-24T15:18:02.372Z,26.00
2022-09-24T15:23:08.796Z,26.00
2022-09-24T15:28:16.774Z,25.90
2022-09-24T15:33:22.408Z,25.80
2022-09-24T15:38:28.164Z,25.80
2022-09-24T15:43:34.508Z,25.90
2022-09-24T15:48:40.094Z,25.80
2022-09-24T15:53:46.550Z,25.80
2022-09-24T15:58:53.498Z,25.80
2022-09-24T16:04:00.637Z,25.80
2022-09-24T16:09:06.468Z,25.80
2022-09-24T16:14:13.358Z,25.80
2022-09-24T16:19:19.019Z,25.80
2022-09-24T16:24:24.689Z,25.80
2022-09-24T16:29:30.415Z,25.80
2022-09-24T16:34:36.319Z,25.90
2022-09-24T16:39:45.518Z,25.70
2022-09-24T16:44:53.119Z,25.80
2022-09-24T16:49:58.725Z,25.90
2022-09-24T16:55:07.692Z,25.90
2022-09-24T17:00:15.517Z,25.80
2022-09-24T17:05:21.133Z,25.90
2022-09-24T17:11:01.654Z,25.90
2022-09-24T17:16:10.675Z,25.90
2022-09-24T17:21:18.530Z,25.90
2022-09-24T17:26:26.667Z,25.90
2022-09-24T17:31:32.287Z,26.00
2022-09-24T17:36:38.970Z,26.00
2022-09-24T17:41:44.839Z,25.80
2022-09-24T17:46:50.347Z,25.00
2022-09-24T17:51:55.913Z,24.30
2022-09-24T17:57:02.126Z,23.80
2022-09-24T18:02:08.504Z,23.60
2022-09-24T18:07:13.811Z,23.50
2022-09-24T18:12:19.609Z,23.40
2022-09-24T18:17:25.311Z,23.30
2022-09-24T18:22:30.914Z,23.30
2022-09-24T18:27:38.311Z,23.30
2022-09-24T18:32:47.743Z,23.40
2022-09-24T18:37:53.202Z,23.40
2022-09-24T18:42:59.853Z,23.50
2022-09-24T18:48:05.149Z,23.60
2022-09-24T18:53:10.830Z,23.70
2022-09-24T18:58:16.392Z,23.70
2022-09-24T19:03:25.684Z,23.60
2022-09-24T19:08:33.820Z,23.60
2022-09-24T19:13:41.216Z,23.70
2022-09-24T19:18:47.198Z,23.60
2022-09-24T19:23:57.982Z,23.70
2022-09-24T19:29:04.513Z,23.60
2022-09-24T19:34:13.519Z,23.60
2022-09-24T19:39:20.180Z,23.60
2022-09-24T19:44:25.708Z,23.60
2022-09-24T19:49:31.366Z,23.50
2022-09-24T19:54:37.106Z,23.50
2022-09-24T19:59:42.064Z,23.50
2022-09-24T20:04:47.620Z,23.30
2022-09-24T20:09:52.845Z,23.20
2022-09-24T20:14:58.304Z,23.30
2022-09-24T20:20:04.492Z,23.30
2022-09-24T20:25:10.241Z,23.30
2022-09-24T20:30:15.772Z,23.30
2022-09-24T20:35:22.643Z,23.30
2022-09-24T20:40:28.036Z,23.30
2022-09-24T20:45:34.806Z,23.30
2022-09-24T20:50:40.330Z,23.40
2022-09-24T20:55:45.890Z,23.50
2022-09-24T21:00:56.422Z,23.50
2022-09-24T21:06:09.838Z,23.50
2022-09-24T21:11:21.455Z,23.50
2022-09-24T21:16:30.645Z,23.60
2022-09-24T21:21:40.320Z,23.70
2022-09-24T21:26:46.759Z,23.80
2022-09-24T21:31:52.412Z,23.90
2022-09-24T21:36:57.390Z,23.80
2022-09-24T21:42:02.876Z,23.80
2022-09-24T21:47:08.321Z,23.70
2022-09-24T21:52:14.543Z,23.60
2022-09-24T21:57:20.315Z,23.50
2022-09-24T22:02:25.814Z,23.50
2022-09-24T22:07:31.506Z,23.40
2022-09-24T22:12:37.979Z,23.40
2022-09-24T22:17:44.141Z,23.50
2022-09-24T22:22:49.835Z,23.50
2022-09-24T22:27:56.356Z,23.60
2022-09-24T22:33:01.885Z,23.60
2022-09-24T22:38:08.625Z,23.80
2022-09-24T22:43:13.921Z,23.80
2022-09-24T22:48:19.099Z,23.90
2022-09-24T22:53:25.267Z,24.00
2022-09-24T22:58:31.096Z,24.00
2022-09-24T23:03:36.497Z,24.00
2022-09-24T23:08:42.843Z,24.10
2022-09-24T23:13:52.640Z,24.20
2022-09-24T23:19:00.573Z,24.20
2022-09-24T23:24:09.309Z,24.30
2022-09-24T23:29:15.719Z,24.40
2022-09-24T23:34:22.043Z,24.50
2022-09-24T23:39:27.689Z,24.50
2022-09-24T23:44:33.091Z,24.50
2022-09-24T23:49:38.835Z,24.50
2022-09-24T23:54:44.912Z,24.30
2022-09-24T23:59:50.271Z,24.20
